Prairie Lake, Minnesota
Current Conditions -  °F | °C
As of 6:36 AM on Thursday 29 Jan 2015 (Local Time) from KCOQ Reporting Station
Overcast Overcast  
Wind Chill: 15°   Ceiling: 1500
Heat Index: 28°   Visibility: 10mi
Dew Point: 23°   Wind: 22mph
Humidity: 80%   Direction: 320°NW
Pressure: 29.98"   Gusts: 31mph
Location:  46.9584°N, 92.9445°W
Report Text: KCOQ 291236Z AUTO 32019G27KT 10SM OVC015 M02/M05 A2998 RMK AO2
Loading
Personal Weather Stations






























Interactive Weather Map New forecast layout! Learn more

10-Day Weather Forecast

Advertisements
Track Severe Weather on mobile